Time;durP1;ratioP1;P1;durP2;ratioP2;P2;SDS_P1;SDS_P2;PMS_P1;PMS_P2;Temp;Humidity;BMP_temperature;BMP_pressure;BME280_temperature;BME280_humidity;BME280_pressure;Samples;Min_cycle;Max_cycle;Signal;HPM_P1;HPM_P2
2022/08/06 00:01:48;;;;;;;3.20;0.60;;;14.00;99.90;;;;;;5017559;28;20046;-68
2022/08/06 00:04:13;;;;;;;3.55;0.95;;;14.00;99.90;;;;;;5034675;28;20349;-68
2022/08/06 00:06:39;;;;;;;1.98;0.95;;;14.00;99.90;;;;;;5034859;28;20046;-67
2022/08/06 00:09:05;;;;;;;1.75;0.50;;;14.00;99.90;;;;;;5035000;28;20038;-70
2022/08/06 00:11:31;;;;;;;3.92;0.73;;;14.00;99.90;;;;;;5034887;28;20087;-68
2022/08/06 00:13:56;;;;;;;3.47;0.77;;;14.00;99.90;;;;;;5034961;28;20076;-69
2022/08/06 00:16:22;;;;;;;2.63;0.82;;;14.10;99.90;;;;;;5035057;28;20049;-69
2022/08/06 00:18:47;;;;;;;1.73;0.80;;;14.10;99.90;;;;;;5034972;28;20045;-67
2022/08/06 00:21:13;;;;;;;2.35;0.55;;;14.10;99.90;;;;;;5016988;28;20452;-68
2022/08/06 00:23:39;;;;;;;1.92;0.77;;;14.10;99.90;;;;;;5034844;28;20068;-70
2022/08/06 00:26:04;;;;;;;3.33;0.80;;;14.10;99.90;;;;;;5034843;28;20042;-68
2022/08/06 00:28:30;;;;;;;4.32;0.73;;;14.00;99.90;;;;;;5034996;28;20463;-69
2022/08/06 00:30:55;;;;;;;2.10;1.25;;;14.10;99.90;;;;;;5034982;28;20045;-69
2022/08/06 00:33:21;;;;;;;2.10;0.70;;;14.10;99.90;;;;;;5034608;28;20049;-68
2022/08/06 00:35:47;;;;;;;1.73;1.00;;;14.10;99.90;;;;;;5034561;28;20038;-67
2022/08/06 00:38:12;;;;;;;2.42;0.63;;;14.00;99.90;;;;;;5016980;28;20138;-67
2022/08/06 00:40:38;;;;;;;1.83;0.80;;;14.00;99.90;;;;;;5034603;28;20044;-67
2022/08/06 00:43:05;;;;;;;0.65;0.60;;;14.10;99.90;;;;;;5034868;28;20139;-68
2022/08/06 00:45:34;;;;;;;2.35;0.90;;;14.00;99.90;;;;;;5034509;28;20061;-68
2022/08/06 00:48:01;;;;;;;1.95;0.77;;;14.00;99.90;;;;;;5034628;28;20445;-70
2022/08/06 00:50:27;;;;;;;1.15;0.60;;;14.00;99.90;;;;;;5016840;28;20071;-69
2022/08/06 00:52:53;;;;;;;2.78;1.38;;;14.00;99.90;;;;;;5017387;28;20125;-71
2022/08/06 00:55:19;;;;;;;4.05;0.93;;;13.90;99.90;;;;;;5034828;28;20060;-69
2022/08/06 00:57:46;;;;;;;3.63;1.00;;;13.90;99.90;;;;;;5017048;28;20049;-70
2022/08/06 01:00:12;;;;;;;2.53;1.00;;;13.90;99.90;;;;;;5037864;28;20372;-70
2022/08/06 01:02:38;;;;;;;3.88;0.80;;;13.90;99.90;;;;;;5038134;28;20045;-70
2022/08/06 01:05:05;;;;;;;1.33;0.70;;;13.90;99.90;;;;;;5037912;28;20071;-71
2022/08/06 01:07:30;;;;;;;1.20;0.80;;;13.80;99.90;;;;;;5038105;28;20037;-69
2022/08/06 01:09:56;;;;;;;2.08;0.90;;;13.80;99.90;;;;;;5038001;28;20049;-69
2022/08/06 01:12:21;;;;;;;1.85;0.80;;;13.70;99.90;;;;;;5038162;28;20045;-69
2022/08/06 01:14:47;;;;;;;1.85;0.98;;;13.70;99.90;;;;;;5038192;28;20041;-68
2022/08/06 01:17:15;;;;;;;1.83;0.93;;;13.70;99.90;;;;;;5038026;28;20155;-68
2022/08/06 01:19:50;;;;;;;1.85;0.85;;;13.70;99.90;;;;;;5037759;28;20510;-68
2022/08/06 01:22:27;;;;;;;4.53;1.10;;;13.60;99.90;;;;;;5037528;28;20124;-69
2022/08/06 01:25:26;;;;;;;3.35;1.35;;;13.70;99.90;;;;;;5037682;28;20041;-68
2022/08/06 01:27:58;;;;;;;4.38;1.02;;;13.60;99.90;;;;;;5037517;28;20136;-69
2022/08/06 01:30:30;;;;;;;2.25;1.13;;;13.60;99.90;;;;;;5037799;28;20042;-67
2022/08/06 01:32:55;;;;;;;3.33;1.08;;;13.60;99.90;;;;;;5037549;28;20042;-70
2022/08/06 01:35:36;;;;;;;3.72;1.20;;;13.60;99.90;;;;;;5037710;28;20200;-68
2022/08/06 01:38:11;;;;;;;2.78;1.48;;;13.60;99.90;;;;;;5037470;28;20042;-70
2022/08/06 01:40:39;;;;;;;1.48;0.93;;;13.50;99.90;;;;;;5037290;28;20041;-68
2022/08/06 01:43:08;;;;;;;4.43;1.50;;;13.50;99.90;;;;;;5037447;28;20049;-69
2022/08/06 01:45:35;;;;;;;1.40;1.10;;;13.50;99.90;;;;;;5037358;28;20049;-70
2022/08/06 01:48:05;;;;;;;1.23;0.85;;;13.40;99.90;;;;;;5037547;28;20061;-68
2022/08/06 01:50:38;;;;;;;2.55;1.02;;;13.40;99.90;;;;;;5037162;28;20041;-68
2022/08/06 01:53:06;;;;;;;5.05;1.25;;;13.50;99.90;;;;;;5037407;28;20072;-68
2022/08/06 01:55:38;;;;;;;2.25;1.13;;;13.50;99.90;;;;;;5037196;28;20061;-68
2022/08/06 01:58:05;;;;;;;2.75;1.08;;;13.50;99.90;;;;;;5019903;28;20076;-69
2022/08/06 02:00:34;;;;;;;3.40;1.10;;;13.40;99.90;;;;;;5037336;28;20175;-67
2022/08/06 02:03:09;;;;;;;1.65;1.13;;;13.50;99.90;;;;;;5036988;28;20333;-70
2022/08/06 02:05:36;;;;;;;2.45;1.40;;;13.40;99.90;;;;;;5019683;28;20049;-70
2022/08/06 02:08:03;;;;;;;3.45;1.67;;;13.40;99.90;;;;;;5019663;28;20041;-70
2022/08/06 02:10:32;;;;;;;2.58;1.10;;;13.40;99.90;;;;;;5036085;28;20049;-67
2022/08/06 02:13:00;;;;;;;3.10;1.30;;;13.40;99.90;;;;;;5019178;28;20041;-70
2022/08/06 02:15:28;;;;;;;2.88;1.40;;;13.50;99.90;;;;;;5036788;28;20111;-69
2022/08/06 02:17:59;;;;;;;2.72;1.30;;;13.40;99.90;;;;;;5036537;28;20092;-69
2022/08/06 02:20:57;;;;;;;1.10;1.00;;;13.40;99.90;;;;;;5036658;28;20079;-70
2022/08/06 02:23:25;;;;;;;1.88;1.30;;;13.50;99.90;;;;;;5033417;28;20065;-67
2022/08/06 02:25:54;;;;;;;3.47;1.55;;;13.40;99.90;;;;;;5036764;28;20510;-68
2022/08/06 02:28:23;;;;;;;3.85;1.70;;;13.40;99.90;;;;;;5036479;28;20049;-71
2022/08/06 02:30:50;;;;;;;4.25;1.45;;;13.40;99.90;;;;;;5019174;28;20061;-67
2022/08/06 02:33:17;;;;;;;2.97;1.55;;;13.40;99.90;;;;;;5036662;28;20107;-69
2022/08/06 02:36:02;;;;;;;4.80;1.52;;;13.40;99.90;;;;;;5036487;28;20475;-70
2022/08/06 02:38:35;;;;;;;1.48;1.20;;;13.40;99.90;;;;;;5036375;28;20095;-69
2022/08/06 02:41:15;;;;;;;2.05;1.50;;;13.40;99.90;;;;;;5036088;28;20045;-68
2022/08/06 02:43:50;;;;;;;1.50;1.25;;;13.30;99.90;;;;;;5036501;28;20041;-69
2022/08/06 02:46:54;;;;;;;2.15;1.05;;;13.40;99.90;;;;;;5006878;28;20141;-70
2022/08/06 02:49:23;;;;;;;4.50;1.75;;;13.30;99.90;;;;;;4999474;28;20417;-70
2022/08/06 02:52:03;;;;;;;2.40;1.10;;;13.30;99.90;;;;;;5016476;28;20515;-67
2022/08/06 02:54:38;;;;;;;2.53;1.10;;;13.30;99.90;;;;;;5015383;28;20054;-70
2022/08/06 02:57:07;;;;;;;1.38;1.00;;;13.30;99.90;;;;;;5016246;28;20072;-70
2022/08/06 02:59:38;;;;;;;2.30;1.25;;;13.30;99.90;;;;;;5015969;28;20124;-69
2022/08/06 03:02:09;;;;;;;1.67;1.20;;;13.30;99.90;;;;;;4998714;28;20532;-70
2022/08/06 03:04:39;;;;;;;2.20;1.42;;;13.30;99.90;;;;;;5016189;28;20345;-70
2022/08/06 03:07:08;;;;;;;3.28;2.08;;;13.30;99.90;;;;;;5016113;28;20058;-69
2022/08/06 03:09:36;;;;;;;3.75;1.50;;;13.50;99.90;;;;;;5016162;28;20370;-69
2022/08/06 03:12:03;;;;;;;4.78;1.60;;;13.50;99.90;;;;;;4998400;28;20053;-69
2022/08/06 03:14:32;;;;;;;2.47;1.40;;;13.40;99.90;;;;;;5016341;28;20149;-70
2022/08/06 03:16:58;;;;;;;2.63;1.73;;;13.50;99.90;;;;;;5015932;28;20038;-70
2022/08/06 03:19:25;;;;;;;4.47;1.80;;;13.50;99.90;;;;;;5015825;28;20464;-69
2022/08/06 03:21:53;;;;;;;1.88;1.30;;;13.50;99.90;;;;;;5015716;28;20042;-69
2022/08/06 03:24:20;;;;;;;1.92;1.30;;;13.50;99.90;;;;;;5015930;28;20046;-67
2022/08/06 03:26:48;;;;;;;4.22;1.52;;;13.50;99.90;;;;;;4998889;28;20042;-69
2022/08/06 03:29:14;;;;;;;3.38;1.35;;;13.40;99.90;;;;;;5015683;28;20038;-67
2022/08/06 03:31:40;;;;;;;3.25;1.70;;;13.40;99.90;;;;;;5015714;28;20049;-69
2022/08/06 03:34:07;;;;;;;4.13;1.40;;;13.40;99.90;;;;;;5015474;28;20100;-68
2022/08/06 03:36:34;;;;;;;2.90;1.70;;;13.40;99.90;;;;;;5015721;28;20402;-69
2022/08/06 03:39:07;;;;;;;7.35;1.83;;;13.40;99.90;;;;;;5015581;28;20057;-68
2022/08/06 03:41:35;;;;;;;2.08;1.85;;;13.30;99.90;;;;;;5015608;28;20107;-69
2022/08/06 03:44:02;;;;;;;5.88;2.90;;;13.30;99.90;;;;;;4997814;28;20060;-68
2022/08/06 03:46:50;;;;;;;2.47;2.05;;;13.40;99.90;;;;;;5011326;28;20068;-69
2022/08/06 03:49:23;;;;;;;2.55;1.88;;;13.40;99.90;;;;;;5023869;28;20053;-69
2022/08/06 03:51:53;;;;;;;4.57;2.43;;;13.40;99.90;;;;;;5035065;28;20052;-67
2022/08/06 03:54:25;;;;;;;5.45;2.08;;;13.40;99.90;;;;;;5035243;28;20052;-70
2022/08/06 03:56:54;;;;;;;3.40;2.13;;;13.40;99.90;;;;;;5017411;28;20056;-69
2022/08/06 03:59:22;;;;;;;2.97;2.42;;;13.40;99.90;;;;;;5017493;28;20050;-68
2022/08/06 04:01:49;;;;;;;3.95;2.65;;;13.40;99.90;;;;;;5034514;28;20041;-68
2022/08/06 04:04:16;;;;;;;6.80;2.95;;;13.30;99.90;;;;;;5034991;28;20053;-68
2022/08/06 04:06:43;;;;;;;6.32;2.75;;;13.30;99.90;;;;;;5034919;28;20096;-67
2022/08/06 04:09:10;;;;;;;6.40;2.35;;;13.30;99.90;;;;;;5035011;28;20042;-69
2022/08/06 04:11:36;;;;;;;3.33;2.13;;;13.30;99.90;;;;;;5035113;28;20128;-68
2022/08/06 04:14:04;;;;;;;4.15;2.30;;;13.30;99.90;;;;;;5034985;28;20444;-67
2022/08/06 04:16:31;;;;;;;3.25;1.80;;;13.30;99.90;;;;;;5035192;28;20352;-68
2022/08/06 04:18:57;;;;;;;4.25;2.28;;;13.40;99.90;;;;;;5034809;28;20136;-70
2022/08/06 04:21:24;;;;;;;7.68;2.70;;;13.30;99.90;;;;;;5034608;28;20049;-70
2022/08/06 04:23:51;;;;;;;3.35;2.92;;;13.30;99.90;;;;;;5017734;28;20054;-67
2022/08/06 04:26:22;;;;;;;6.07;2.80;;;13.20;99.90;;;;;;5034824;28;20037;-69
2022/08/06 04:28:50;;;;;;;4.75;2.65;;;13.20;99.90;;;;;;5034944;28;20041;-68
2022/08/06 04:31:18;;;;;;;3.97;2.50;;;13.30;99.90;;;;;;5034763;28;20055;-70
2022/08/06 04:33:45;;;;;;;3.17;2.75;;;13.30;99.90;;;;;;5035767;28;20045;-69
2022/08/06 04:36:12;;;;;;;6.15;2.88;;;13.40;99.90;;;;;;5038695;28;20088;-67
2022/08/06 04:38:39;;;;;;;3.42;2.20;;;13.50;99.90;;;;;;5020537;28;20259;-69
2022/08/06 04:41:05;;;;;;;3.60;2.42;;;13.50;99.90;;;;;;5021131;28;20124;-70
2022/08/06 04:43:31;;;;;;;5.00;2.85;;;13.60;99.90;;;;;;5038770;28;20076;-68
2022/08/06 04:45:57;;;;;;;4.45;2.53;;;13.60;99.90;;;;;;5038250;28;20538;-70
2022/08/06 04:48:24;;;;;;;4.28;1.95;;;13.70;99.90;;;;;;5038429;28;20076;-68
2022/08/06 04:50:50;;;;;;;2.53;1.90;;;13.70;99.90;;;;;;5021458;28;20054;-70
2022/08/06 04:53:17;;;;;;;6.57;2.42;;;13.70;99.90;;;;;;5021072;28;20053;-67
2022/08/06 04:55:44;;;;;;;3.10;1.83;;;13.80;99.90;;;;;;5038603;28;20096;-69
2022/08/06 04:58:12;;;;;;;2.83;1.80;;;13.80;99.90;;;;;;5020803;28;20049;-69
2022/08/06 05:00:41;;;;;;;2.53;2.30;;;13.80;99.90;;;;;;5038321;28;20452;-67
2022/08/06 05:03:06;;;;;;;2.65;2.08;;;13.80;99.90;;;;;;5038274;28;20049;-68
2022/08/06 05:05:39;;;;;;;7.03;2.33;;;13.80;99.90;;;;;;5038482;28;20056;-69
2022/08/06 05:08:07;;;;;;;3.50;2.13;;;13.80;99.90;;;;;;5038291;28;20049;-70
2022/08/06 05:10:46;;;;;;;2.65;2.45;;;13.90;99.90;;;;;;5038128;28;20049;-70
2022/08/06 05:13:14;;;;;;;6.30;2.60;;;13.90;99.90;;;;;;5037697;28;20523;-68
2022/08/06 05:15:43;;;;;;;2.85;1.90;;;14.00;99.90;;;;;;5020991;28;20061;-67
2022/08/06 05:18:13;;;;;;;5.70;2.20;;;14.00;99.90;;;;;;5037947;28;20356;-68
2022/08/06 05:20:42;;;;;;;7.00;2.45;;;14.00;99.90;;;;;;5038060;28;20042;-68
2022/08/06 05:23:20;;;;;;;6.22;2.35;;;14.00;99.90;;;;;;5037760;28;20045;-69
2022/08/06 05:25:46;;;;;;;4.60;2.30;;;14.00;99.90;;;;;;5037594;28;20053;-67
2022/08/06 05:28:12;;;;;;;4.13;2.25;;;14.10;99.90;;;;;;5037800;28;20124;-69
2022/08/06 05:30:46;;;;;;;3.38;2.25;;;14.10;99.90;;;;;;5037915;28;20172;-68
2022/08/06 05:33:21;;;;;;;3.10;1.77;;;14.20;99.90;;;;;;5037756;28;20459;-68
2022/08/06 05:35:46;;;;;;;3.88;2.00;;;14.20;99.90;;;;;;5037384;28;20414;-68
2022/08/06 05:38:12;;;;;;;4.35;1.50;;;14.30;99.90;;;;;;5037486;28;20128;-69
2022/08/06 05:40:39;;;;;;;4.15;1.63;;;14.40;99.90;;;;;;5037680;28;20131;-67
2022/08/06 05:43:04;;;;;;;6.60;1.50;;;14.50;99.90;;;;;;5037332;28;20124;-68
2022/08/06 05:45:31;;;;;;;4.28;1.40;;;14.60;99.90;;;;;;5035967;28;20505;-69
2022/08/06 05:48:01;;;;;;;3.15;1.58;;;14.70;99.90;;;;;;5037206;28;20435;-68
2022/08/06 05:50:32;;;;;;;3.60;1.23;;;14.80;99.90;;;;;;5019517;28;20136;-67
2022/08/06 05:53:08;;;;;;;4.97;1.48;;;14.90;99.90;;;;;;5037279;28;20088;-68
2022/08/06 05:55:51;;;;;;;3.40;1.23;;;14.90;99.90;;;;;;5019957;28;20057;-69
2022/08/06 05:58:36;;;;;;;4.88;1.90;;;15.00;99.90;;;;;;5037308;28;20131;-69
2022/08/06 06:01:03;;;;;;;;;;;15.10;99.90;;;;;;5037354;28;20041;-70
2022/08/06 06:03:29;;;;;;;5.97;1.92;;;15.20;99.90;;;;;;5037032;28;19943;-69
2022/08/06 06:06:00;;;;;;;6.40;2.17;;;15.20;99.90;;;;;;5037133;28;20049;-69
2022/08/06 06:08:26;;;;;;;4.50;1.83;;;15.40;99.90;;;;;;5036981;28;20045;-68
2022/08/06 06:10:52;;;;;;;6.65;2.78;;;15.50;99.90;;;;;;5037019;28;20056;-69
2022/08/06 06:13:21;;;;;;;5.90;2.60;;;15.60;99.90;;;;;;5036861;28;20073;-69
2022/08/06 06:16:07;;;;;;;6.60;2.33;;;15.60;99.90;;;;;;5036973;28;20064;-70
2022/08/06 06:18:48;;;;;;;6.13;2.55;;;15.60;99.90;;;;;;5036864;28;20073;-70
2022/08/06 06:21:22;;;;;;;7.93;2.97;;;15.60;99.90;;;;;;5036861;28;20041;-67
2022/08/06 06:24:06;;;;;;;7.93;3.20;;;15.50;99.90;;;;;;5036708;28;20052;-67
2022/08/06 06:26:43;;;;;;;6.20;2.97;;;15.50;99.90;;;;;;5036672;28;20049;-67
2022/08/06 06:29:26;;;;;;;7.05;3.20;;;15.50;99.90;;;;;;5036516;28;20060;-70
2022/08/06 06:32:17;;;;;;;5.88;3.00;;;15.50;99.90;;;;;;5036665;28;20042;-69
2022/08/06 06:34:59;;;;;;;5.57;3.30;;;15.40;99.90;;;;;;5036320;28;20041;-67
2022/08/06 06:37:33;;;;;;;4.43;3.22;;;15.40;99.90;;;;;;5036226;28;20471;-68
2022/08/06 06:40:42;;;;;;;7.72;2.95;;;15.50;99.90;;;;;;5036546;28;20056;-69
2022/08/06 06:43:39;;;;;;;8.27;2.80;;;15.60;99.90;;;;;;5019153;28;20049;-69
2022/08/06 06:46:27;;;;;;;6.20;2.80;;;15.60;99.90;;;;;;5035779;28;20068;-67
2022/08/06 06:49:02;;;;;;;5.25;2.67;;;15.70;99.90;;;;;;5035995;28;20120;-67
2022/08/06 06:51:30;;;;;;;;;;;15.80;99.90;;;;;;5036346;28;20064;-69
2022/08/06 06:53:56;;;;;;;4.60;2.65;;;15.80;99.90;;;;;;5036096;28;20026;-70
2022/08/06 06:56:36;;;;;;;5.45;2.83;;;15.90;99.90;;;;;;5035618;28;20046;-70
2022/08/06 06:59:29;;;;;;;8.32;3.25;;;16.00;99.90;;;;;;5018592;28;20356;-68
2022/08/06 07:01:55;;;;;;;11.70;3.10;;;16.10;99.90;;;;;;5032851;28;20486;-69
2022/08/06 07:04:24;;;;;;;3.60;2.63;;;16.30;99.90;;;;;;5035829;28;20456;-70
2022/08/06 07:06:53;;;;;;;5.32;2.38;;;16.40;99.90;;;;;;5036087;28;20064;-70
2022/08/06 07:09:22;;;;;;;5.82;2.38;;;16.50;99.90;;;;;;5036065;28;20045;-70
2022/08/06 07:11:50;;;;;;;3.80;2.50;;;16.50;99.90;;;;;;5035965;28;20410;-71
2022/08/06 07:14:18;;;;;;;5.00;2.45;;;16.60;99.90;;;;;;5035688;28;20045;-69
2022/08/06 07:16:45;;;;;;;6.90;2.40;;;16.60;99.90;;;;;;5035463;28;20452;-67
2022/08/06 07:19:12;;;;;;;3.55;2.38;;;16.70;99.90;;;;;;5035536;28;20581;-67
2022/08/06 07:21:43;;;;;;;6.25;2.63;;;16.80;99.90;;;;;;5035657;28;20341;-68
2022/08/06 07:24:11;;;;;;;5.35;2.88;;;17.00;99.90;;;;;;5018231;28;20049;-70
2022/08/06 07:26:38;;;;;;;4.88;2.15;;;17.10;99.90;;;;;;5035463;28;20046;-68
2022/08/06 07:29:04;;;;;;;8.45;2.97;;;17.20;99.90;;;;;;5035628;28;20050;-69
2022/08/06 07:31:31;;;;;;;6.20;2.22;;;17.30;99.90;;;;;;5035549;28;20060;-69
2022/08/06 07:33:58;;;;;;;5.13;2.67;;;17.30;99.90;;;;;;5000382;28;20049;-69
2022/08/06 07:36:27;;;;;;;9.27;2.60;;;17.30;99.90;;;;;;5035513;28;20041;-70
2022/08/06 07:38:59;;;;;;;2.90;2.33;;;17.40;99.90;;;;;;5035163;28;20056;-70
2022/08/06 07:41:26;;;;;;;4.93;2.95;;;17.40;99.90;;;;;;5035188;28;20084;-69
2022/08/06 07:43:56;;;;;;;6.32;2.30;;;17.40;99.90;;;;;;5035226;28;20037;-70
2022/08/06 07:46:28;;;;;;;5.75;2.28;;;17.40;99.90;;;;;;5035040;28;20057;-71
2022/08/06 07:48:57;;;;;;;4.45;2.50;;;17.50;99.90;;;;;;5035313;28;20132;-71
2022/08/06 07:51:26;;;;;;;5.70;2.63;;;17.60;99.90;;;;;;5035196;28;20107;-70
2022/08/06 07:53:52;;;;;;;3.85;2.53;;;17.80;99.90;;;;;;5035000;28;20042;-69
2022/08/06 07:56:19;;;;;;;7.60;3.00;;;17.90;99.90;;;;;;5035108;28;20348;-68
2022/08/06 07:58:45;;;;;;;4.55;2.42;;;17.80;99.90;;;;;;5034937;28;20041;-69
2022/08/06 08:01:11;;;;;;;7.65;2.90;;;17.70;99.90;;;;;;5017441;28;20042;-70
2022/08/06 08:06:22;;;;;;;9.27;2.50;;;17.80;99.90;;;;;;5034899;28;20383;-70
2022/08/06 08:08:54;;;;;;;3.85;2.58;;;17.90;99.90;;;;;;5034160;28;20055;-68
2022/08/06 08:11:21;;;;;;;6.22;2.70;;;17.80;99.90;;;;;;5034810;28;20099;-68
2022/08/06 08:13:46;;;;;;;4.38;2.42;;;18.00;99.90;;;;;;5035013;28;20359;-69
2022/08/06 08:16:14;;;;;;;6.20;2.83;;;17.90;99.90;;;;;;5035017;28;20045;-68
2022/08/06 08:18:40;;;;;;;6.13;3.33;;;17.80;99.90;;;;;;5017469;28;20060;-70
2022/08/06 08:21:08;;;;;;;4.75;2.58;;;17.70;99.90;;;;;;5034967;28;20041;-70
2022/08/06 08:23:34;;;;;;;5.85;3.00;;;17.60;99.90;;;;;;5034705;28;20432;-71
2022/08/06 08:26:01;;;;;;;4.85;2.97;;;17.80;99.90;;;;;;5034962;28;20095;-70
2022/08/06 08:28:28;;;;;;;3.03;2.50;;;17.70;99.90;;;;;;5034790;28;20053;-70
2022/08/06 08:30:58;;;;;;;3.58;2.70;;;17.70;99.90;;;;;;5034757;28;20116;-69
2022/08/06 08:33:24;;;;;;;4.90;2.67;;;17.70;99.90;;;;;;5034870;28;20436;-69
2022/08/06 08:35:49;;;;;;;4.28;2.53;;;17.70;99.90;;;;;;5034598;28;20121;-71
2022/08/06 08:38:15;;;;;;;3.53;2.42;;;17.70;99.90;;;;;;5017094;28;20045;-68
2022/08/06 08:40:42;;;;;;;6.22;2.83;;;17.60;99.90;;;;;;5034457;28;20424;-68
2022/08/06 08:43:12;;;;;;;6.32;2.70;;;17.60;99.90;;;;;;5034793;28;20046;-69
2022/08/06 08:45:39;;;;;;;6.97;2.83;;;17.90;99.90;;;;;;5034277;28;20490;-70
2022/08/06 08:48:06;;;;;;;5.45;2.72;;;18.10;99.90;;;;;;5034437;28;20060;-71
2022/08/06 08:50:34;;;;;;;4.20;3.22;;;18.40;99.90;;;;;;5034604;28;20049;-69
2022/08/06 08:53:09;;;;;;;5.60;3.20;;;18.50;99.90;;;;;;5034460;28;20368;-68
2022/08/06 08:55:34;;;;;;;4.68;3.15;;;18.70;99.90;;;;;;5017110;28;20057;-69
2022/08/06 08:58:01;;;;;;;5.63;3.05;;;18.60;99.90;;;;;;5034636;28;20120;-72
2022/08/06 09:00:27;;;;;;;6.35;3.17;;;18.60;99.90;;;;;;5034269;28;20064;-71
2022/08/06 09:02:53;;;;;;;2.45;2.10;;;18.70;99.90;;;;;;5034371;28;20053;-72
2022/08/06 09:05:20;;;;;;;5.18;3.10;;;18.50;99.90;;;;;;5034590;28;20351;-69
2022/08/06 09:07:46;;;;;;;5.15;3.13;;;18.60;99.90;;;;;;5017041;28;20045;-68
2022/08/06 09:10:12;;;;;;;4.13;3.20;;;18.60;99.90;;;;;;5034469;28;20081;-71
2022/08/06 09:12:39;;;;;;;6.80;4.20;;;18.80;99.90;;;;;;5034249;28;20452;-70
2022/08/06 09:15:05;;;;;;;4.13;2.85;;;18.70;99.90;;;;;;5034234;28;20047;-70
2022/08/06 09:17:31;;;;;;;5.32;3.30;;;18.80;99.90;;;;;;5034517;28;20407;-68
2022/08/06 09:19:56;;;;;;;4.63;3.10;;;18.70;99.90;;;;;;5035589;28;20445;-70
2022/08/06 09:22:22;;;;;;;5.20;3.20;;;18.70;99.90;;;;;;5037654;28;20137;-70
2022/08/06 09:24:48;;;;;;;8.52;3.45;;;18.80;99.90;;;;;;5037893;28;20061;-70
2022/08/06 09:27:16;;;;;;;7.65;3.42;;;19.00;99.90;;;;;;5037876;28;20049;-67
2022/08/06 09:29:56;;;;;;;6.68;3.38;;;19.00;99.90;;;;;;5037524;28;20120;-68
2022/08/06 09:32:42;;;;;;;8.07;3.53;;;18.90;99.90;;;;;;5037610;28;20033;-69
2022/08/06 09:35:22;;;;;;;8.68;3.22;;;18.70;99.90;;;;;;5037699;28;20053;-68
2022/08/06 09:37:50;;;;;;;5.22;2.83;;;18.80;99.90;;;;;;5037573;28;20110;-71
2022/08/06 09:40:17;;;;;;;4.25;2.90;;;18.70;99.90;;;;;;5037664;28;20430;-68
2022/08/06 09:42:46;;;;;;;9.18;3.50;;;18.80;99.90;;;;;;5037298;28;20060;-69
2022/08/06 09:45:13;;;;;;;7.10;3.40;;;18.90;99.90;;;;;;5037208;28;20053;-69
2022/08/06 09:47:40;;;;;;;6.93;3.70;;;18.80;99.90;;;;;;5037521;28;20053;-70
2022/08/06 09:50:06;;;;;;;6.25;3.65;;;18.80;99.90;;;;;;5037397;28;20045;-71
2022/08/06 09:52:32;;;;;;;4.97;3.28;;;18.70;99.90;;;;;;5037407;28;20053;-71
2022/08/06 09:54:58;;;;;;;6.93;3.85;;;18.70;99.90;;;;;;5019377;28;20045;-70
2022/08/06 09:57:25;;;;;;;5.30;3.20;;;18.70;99.90;;;;;;5037130;28;20037;-71
2022/08/06 09:59:51;;;;;;;4.57;3.10;;;18.80;99.90;;;;;;5037152;28;20045;-70
2022/08/06 10:02:19;;;;;;;5.30;3.72;;;18.80;99.90;;;;;;5037007;28;20061;-68
2022/08/06 10:04:45;;;;;;;6.85;3.10;;;18.70;99.90;;;;;;5019725;28;20060;-72
2022/08/06 10:07:11;;;;;;;4.47;3.33;;;18.70;99.90;;;;;;5037151;28;20137;-69
2022/08/06 10:09:55;;;;;;;6.40;3.10;;;18.70;99.90;;;;;;5019524;28;20038;-68
2022/08/06 10:12:23;;;;;;;3.72;2.53;;;18.70;99.90;;;;;;5036932;28;20116;-71
2022/08/06 10:14:48;;;;;;;3.33;2.28;;;18.70;99.90;;;;;;5036976;28;20053;-69
2022/08/06 10:17:17;;;;;;;4.07;2.85;;;18.80;99.90;;;;;;5036935;28;20228;-70
2022/08/06 10:19:45;;;;;;;3.88;2.35;;;18.70;99.90;;;;;;5019251;28;20049;-69
2022/08/06 10:22:12;;;;;;;3.10;2.22;;;18.70;99.90;;;;;;5036648;28;20436;-70
2022/08/06 10:24:46;;;;;;;2.63;2.17;;;18.80;99.90;;;;;;5036599;28;20502;-68
2022/08/06 10:27:28;;;;;;;4.43;2.30;;;18.80;99.90;;;;;;5036674;28;20107;-70
2022/08/06 10:29:59;;;;;;;5.18;2.30;;;18.90;99.90;;;;;;5019160;28;20111;-70
2022/08/06 10:32:53;;;;;;;4.38;3.03;;;19.00;99.90;;;;;;5035820;28;20407;-68
2022/08/06 10:35:21;;;;;;;4.32;2.67;;;19.10;99.90;;;;;;5036252;28;20543;-70
2022/08/06 10:37:53;;;;;;;5.32;2.47;;;19.20;99.90;;;;;;5036442;28;20041;-70
2022/08/06 10:40:20;;;;;;;4.43;2.78;;;19.30;99.90;;;;;;5019063;28;20037;-68
2022/08/06 10:42:46;;;;;;;3.40;3.10;;;19.00;99.90;;;;;;5036058;28;20464;-71
2022/08/06 10:45:13;;;;;;;3.53;3.20;;;18.90;99.90;;;;;;5036060;28;20406;-70
2022/08/06 10:47:41;;;;;;;4.25;2.95;;;18.90;99.90;;;;;;5036195;28;20054;-72
2022/08/06 10:50:08;;;;;;;3.97;2.65;;;19.00;99.90;;;;;;5036080;28;20081;-70
2022/08/06 10:52:34;;;;;;;3.42;3.03;;;19.20;99.90;;;;;;5018942;28;20192;-71
2022/08/06 10:55:00;;;;;;;5.85;3.53;;;19.10;99.90;;;;;;5036126;28;20049;-70
2022/08/06 10:57:27;;;;;;;4.20;3.28;;;19.10;99.90;;;;;;5035880;28;20037;-68
2022/08/06 10:59:53;;;;;;;5.95;3.30;;;19.10;99.90;;;;;;5036046;28;20049;-68
2022/08/06 11:02:47;;;;;;;4.53;2.80;;;19.20;99.90;;;;;;5034787;28;20084;-70
2022/08/06 11:05:16;;;;;;;4.57;3.43;;;19.40;99.90;;;;;;5035831;28;20045;-70
2022/08/06 11:08:05;;;;;;;3.75;3.03;;;19.30;98.60;;;;;;5035665;28;20045;-70
2022/08/06 11:11:08;;;;;;;3.42;3.03;;;19.40;99.60;;;;;;5018720;28;20068;-68
2022/08/06 11:14:06;;;;;;;3.83;3.15;;;19.60;99.90;;;;;;5001440;28;20100;-69
2022/08/06 11:16:32;;;;;;;5.05;3.75;;;19.40;99.90;;;;;;5017744;28;20054;-72
2022/08/06 11:19:06;;;;;;;4.63;3.58;;;19.20;99.90;;;;;;5035575;28;20037;-72
2022/08/06 11:21:45;;;;;;;6.03;3.30;;;19.50;99.90;;;;;;5018177;28;20045;-69
2022/08/06 11:24:13;;;;;;;5.00;3.20;;;19.80;99.90;;;;;;5035676;28;20120;-72
2022/08/06 11:26:40;;;;;;;4.82;3.50;;;19.80;99.90;;;;;;5035461;28;20041;-70
2022/08/06 11:29:10;;;;;;;4.78;3.45;;;19.40;99.60;;;;;;5035122;28;20042;-71
2022/08/06 11:31:38;;;;;;;3.92;3.05;;;19.30;99.90;;;;;;5035675;28;20049;-71
2022/08/06 11:34:06;;;;;;;7.05;4.15;;;19.10;99.90;;;;;;5035446;28;20052;-69
2022/08/06 11:36:55;;;;;;;3.35;3.05;;;19.30;99.90;;;;;;5035436;28;20120;-72
2022/08/06 11:39:23;;;;;;;4.38;2.90;;;19.60;99.90;;;;;;5035322;28;20367;-68
2022/08/06 11:41:58;;;;;;;3.92;3.10;;;19.80;99.90;;;;;;5035244;28;20050;-68
2022/08/06 11:44:26;;;;;;;4.43;3.28;;;19.50;99.10;;;;;;5035083;28;20056;-70
2022/08/06 11:47:12;;;;;;;3.88;2.70;;;19.50;99.50;;;;;;5035127;28;20061;-72
2022/08/06 11:49:43;;;;;;;6.85;3.42;;;19.90;99.90;;;;;;5018155;28;20053;-73
2022/08/06 11:52:29;;;;;;;5.10;3.00;;;20.20;99.90;;;;;;5034907;28;20464;-71
2022/08/06 11:55:04;;;;;;;6.00;3.38;;;20.50;99.90;;;;;;5035101;28;20476;-72
2022/08/06 11:57:30;;;;;;;4.30;2.90;;;20.20;99.40;;;;;;5035094;28;20440;-70
2022/08/06 11:59:56;;;;;;;3.88;3.00;;;20.10;99.50;;;;;;5035033;28;20037;-72
2022/08/06 12:02:45;;;;;;;2.97;2.58;;;19.90;98.80;;;;;;5034760;28;20122;-69
2022/08/06 12:05:14;;;;;;;4.57;3.13;;;20.30;98.40;;;;;;5035051;28;20050;-69
2022/08/06 12:07:45;;;;;;;4.55;3.28;;;20.40;98.20;;;;;;5035155;28;20041;-72
2022/08/06 12:10:13;;;;;;;4.30;3.20;;;20.70;98.10;;;;;;5034794;28;20076;-71
2022/08/06 12:12:52;;;;;;;4.57;3.25;;;20.50;97.00;;;;;;5034901;28;20045;-70
2022/08/06 12:15:23;;;;;;;5.53;3.10;;;20.20;96.40;;;;;;5034777;28;20460;-69
2022/08/06 12:17:57;;;;;;;4.55;3.10;;;20.30;98.10;;;;;;5034441;28;20049;-71
2022/08/06 12:20:29;;;;;;;;;;;20.90;98.70;;;;;;5035449;28;20087;-69
2022/08/06 12:22:55;;;;;;;4.50;3.50;;;21.00;98.10;;;;;;5017789;28;19994;-71
2022/08/06 12:25:21;;;;;;;3.72;3.30;;;21.30;97.80;;;;;;5017659;28;20042;-72
2022/08/06 12:27:46;;;;;;;5.88;3.03;;;20.80;96.60;;;;;;5034754;28;20091;-71
2022/08/06 12:30:12;;;;;;;4.55;3.30;;;20.90;97.90;;;;;;5034569;28;20041;-71
2022/08/06 12:32:39;;;;;;;5.40;3.60;;;20.80;97.60;;;;;;5034785;28;20048;-73
2022/08/06 12:35:09;;;;;;;4.85;2.95;;;20.90;97.70;;;;;;5034707;28;20049;-70
2022/08/06 12:37:45;;;;;;;4.30;3.50;;;21.10;97.00;;;;;;5034512;28;20057;-71
2022/08/06 12:40:28;;;;;;;6.22;3.60;;;21.30;97.40;;;;;;5034716;28;20052;-72
2022/08/06 12:42:59;;;;;;;3.47;2.92;;;21.80;96.70;;;;;;5034705;28;20045;-70
2022/08/06 12:45:25;;;;;;;4.53;3.50;;;22.50;96.40;;;;;;5034658;28;20072;-70
2022/08/06 12:48:05;;;;;;;4.60;3.10;;;23.00;95.90;;;;;;5034639;28;20084;-73
2022/08/06 12:50:32;;;;;;;3.80;3.42;;;23.00;93.20;;;;;;5034603;28;20446;-70
2022/08/06 12:53:18;;;;;;;4.00;3.10;;;22.70;93.50;;;;;;5034601;28;20050;-73
2022/08/06 12:55:49;;;;;;;5.72;3.30;;;23.30;93.90;;;;;;5037229;28;20042;-70
2022/08/06 12:58:17;;;;;;;4.22;3.28;;;22.70;93.20;;;;;;5038466;28;20111;-69
2022/08/06 13:00:49;;;;;;;3.28;2.95;;;23.50;93.10;;;;;;5037922;28;20037;-72
2022/08/06 13:03:17;;;;;;;4.22;3.30;;;22.70;92.00;;;;;;5038208;28;20056;-71
2022/08/06 13:05:44;;;;;;;5.32;3.72;;;22.20;93.20;;;;;;5038291;28;20049;-70
2022/08/06 13:08:12;;;;;;;4.38;3.35;;;22.20;94.40;;;;;;5020972;28;20061;-72